sensor_id;sensor_type;location;lat;lon;timestamp;pressure;altitude;pressure_sealevel;temperature;humidity
63033;BME280;49121;38.932;-9.018;2023-03-26T00:00:52;111992.50;;;-145.11;96.71
63033;BME280;49121;38.932;-9.018;2023-03-26T00:02:55;111992.50;;;-145.11;96.77
63033;BME280;49121;38.932;-9.018;2023-03-26T00:04:56;111992.50;;;-145.11;96.65
63033;BME280;49121;38.932;-9.018;2023-03-26T00:06:56;111992.50;;;-145.11;96.51
63033;BME280;49121;38.932;-9.018;2023-03-26T00:09:00;111992.50;;;-145.11;96.56
63033;BME280;49121;38.932;-9.018;2023-03-26T00:11:00;111992.50;;;-145.11;96.38
63033;BME280;49121;38.932;-9.018;2023-03-26T00:13:05;111992.50;;;-145.11;96.59
63033;BME280;49121;38.932;-9.018;2023-03-26T00:15:05;111992.50;;;-145.11;96.66
63033;BME280;49121;38.932;-9.018;2023-03-26T00:17:07;111992.50;;;-145.11;96.71
63033;BME280;49121;38.932;-9.018;2023-03-26T00:19:07;111992.50;;;-145.11;96.84
63033;BME280;49121;38.932;-9.018;2023-03-26T00:21:09;111992.50;;;-145.11;96.94
63033;BME280;49121;38.932;-9.018;2023-03-26T00:23:11;111992.50;;;-145.11;97.05
63033;BME280;49121;38.932;-9.018;2023-03-26T00:25:12;111992.50;;;-145.11;97.41
63033;BME280;49121;38.932;-9.018;2023-03-26T00:27:13;111992.50;;;-145.11;97.38
63033;BME280;49121;38.932;-9.018;2023-03-26T00:29:14;111992.50;;;-145.11;97.46
63033;BME280;49121;38.932;-9.018;2023-03-26T00:31:14;111992.50;;;-145.11;97.66
63033;BME280;49121;38.932;-9.018;2023-03-26T00:33:34;111992.50;;;-145.11;97.73
63033;BME280;49121;38.932;-9.018;2023-03-26T00:35:56;111992.50;;;-145.11;97.84
63033;BME280;49121;38.932;-9.018;2023-03-26T00:38:05;111992.50;;;-145.11;98.08
63033;BME280;49121;38.932;-9.018;2023-03-26T00:40:05;111992.50;;;-145.11;98.24
63033;BME280;49121;38.932;-9.018;2023-03-26T00:42:07;111992.50;;;-145.11;97.68
63033;BME280;49121;38.932;-9.018;2023-03-26T00:44:08;111992.50;;;-145.11;97.51
63033;BME280;49121;38.932;-9.018;2023-03-26T00:46:15;111992.50;;;-145.11;97.95
63033;BME280;49121;38.932;-9.018;2023-03-26T00:48:16;111992.50;;;-145.11;97.28
63033;BME280;49121;38.932;-9.018;2023-03-26T00:50:17;111992.50;;;-145.11;96.17
63033;BME280;49121;38.932;-9.018;2023-03-26T00:52:17;111992.50;;;-145.11;95.50
63033;BME280;49121;38.932;-9.018;2023-03-26T00:54:19;111992.50;;;-145.11;94.51
63033;BME280;49121;38.932;-9.018;2023-03-26T00:56:19;111992.50;;;-145.11;94.40
63033;BME280;49121;38.932;-9.018;2023-03-26T00:58:23;111992.50;;;-145.11;94.39
63033;BME280;49121;38.932;-9.018;2023-03-26T01:00:27;111992.50;;;-145.11;94.34
63033;BME280;49121;38.932;-9.018;2023-03-26T01:02:28;111992.50;;;-145.11;94.51
63033;BME280;49121;38.932;-9.018;2023-03-26T01:04:31;111992.50;;;-145.11;94.59
63033;BME280;49121;38.932;-9.018;2023-03-26T01:06:33;111992.50;;;-145.11;95.06
63033;BME280;49121;38.932;-9.018;2023-03-26T01:08:37;111992.50;;;-145.11;95.26
63033;BME280;49121;38.932;-9.018;2023-03-26T01:10:40;111992.50;;;-145.11;95.74
63033;BME280;49121;38.932;-9.018;2023-03-26T01:12:41;111992.50;;;-145.11;95.74
63033;BME280;49121;38.932;-9.018;2023-03-26T01:14:45;111992.50;;;-145.11;95.59
63033;BME280;49121;38.932;-9.018;2023-03-26T01:16:54;111992.50;;;-145.11;95.58
63033;BME280;49121;38.932;-9.018;2023-03-26T01:18:54;111992.50;;;-145.11;95.66
63033;BME280;49121;38.932;-9.018;2023-03-26T01:20:59;111992.50;;;-145.11;95.81
63033;BME280;49121;38.932;-9.018;2023-03-26T01:23:05;111992.50;;;-145.11;95.73
63033;BME280;49121;38.932;-9.018;2023-03-26T01:25:06;111992.50;;;-145.11;95.68
63033;BME280;49121;38.932;-9.018;2023-03-26T01:29:16;111992.50;;;-145.11;96.12
63033;BME280;49121;38.932;-9.018;2023-03-26T01:31:26;111992.50;;;-145.11;95.50
63033;BME280;49121;38.932;-9.018;2023-03-26T01:33:34;111992.50;;;-145.11;95.82
63033;BME280;49121;38.932;-9.018;2023-03-26T01:35:39;111992.50;;;-145.11;95.93
63033;BME280;49121;38.932;-9.018;2023-03-26T01:39:49;111992.50;;;-145.11;95.74
63033;BME280;49121;38.932;-9.018;2023-03-26T01:41:55;111992.50;;;-145.11;95.91
63033;BME280;49121;38.932;-9.018;2023-03-26T01:43:59;111992.50;;;-145.11;96.17
63033;BME280;49121;38.932;-9.018;2023-03-26T01:46:00;111992.50;;;-145.11;96.54
63033;BME280;49121;38.932;-9.018;2023-03-26T01:48:03;111992.50;;;-145.11;96.54
63033;BME280;49121;38.932;-9.018;2023-03-26T01:50:04;111992.50;;;-145.11;96.91
63033;BME280;49121;38.932;-9.018;2023-03-26T01:52:13;111992.50;;;-145.11;96.89
63033;BME280;49121;38.932;-9.018;2023-03-26T01:54:15;111992.50;;;-145.11;96.52
63033;BME280;49121;38.932;-9.018;2023-03-26T01:57:02;111992.50;;;-145.11;96.50
63033;BME280;49121;38.932;-9.018;2023-03-26T02:00:57;111992.50;;;-145.11;96.79
63033;BME280;49121;38.932;-9.018;2023-03-26T02:03:12;111992.50;;;-145.11;96.80
63033;BME280;49121;38.932;-9.018;2023-03-26T02:05:21;111992.50;;;-145.11;96.78
63033;BME280;49121;38.932;-9.018;2023-03-26T02:07:37;111992.50;;;-145.11;97.03
63033;BME280;49121;38.932;-9.018;2023-03-26T02:09:41;111992.50;;;-145.11;97.09
63033;BME280;49121;38.932;-9.018;2023-03-26T02:11:45;111992.50;;;-145.11;97.37
63033;BME280;49121;38.932;-9.018;2023-03-26T02:13:46;111992.50;;;-145.11;97.51
63033;BME280;49121;38.932;-9.018;2023-03-26T02:15:53;111992.50;;;-145.11;97.83
63033;BME280;49121;38.932;-9.018;2023-03-26T02:17:53;111992.50;;;-145.11;97.92
63033;BME280;49121;38.932;-9.018;2023-03-26T02:19:55;111992.50;;;-145.11;97.65
63033;BME280;49121;38.932;-9.018;2023-03-26T02:21:55;111992.50;;;-145.11;97.82
63033;BME280;49121;38.932;-9.018;2023-03-26T02:24:00;111992.50;;;-145.11;98.14
63033;BME280;49121;38.932;-9.018;2023-03-26T02:31:04;111992.50;;;-145.11;98.97
63033;BME280;49121;38.932;-9.018;2023-03-26T02:33:05;111992.50;;;-145.11;98.95
63033;BME280;49121;38.932;-9.018;2023-03-26T02:35:14;111992.50;;;-145.11;99.39
63033;BME280;49121;38.932;-9.018;2023-03-26T02:37:14;111992.50;;;-145.11;99.59
63033;BME280;49121;38.932;-9.018;2023-03-26T02:39:20;111992.50;;;-145.11;99.13
63033;BME280;49121;38.932;-9.018;2023-03-26T02:41:29;111992.50;;;-145.11;98.58
63033;BME280;49121;38.932;-9.018;2023-03-26T02:43:34;111992.50;;;-145.11;98.41
63033;BME280;49121;38.932;-9.018;2023-03-26T02:45:37;111992.50;;;-145.11;98.24
63033;BME280;49121;38.932;-9.018;2023-03-26T02:47:40;111992.50;;;-145.11;97.86
63033;BME280;49121;38.932;-9.018;2023-03-26T02:49:59;111992.50;;;-145.11;97.32
63033;BME280;49121;38.932;-9.018;2023-03-26T02:52:19;111992.50;;;-145.11;97.05
63033;BME280;49121;38.932;-9.018;2023-03-26T02:54:38;111992.50;;;-145.11;97.27
63033;BME280;49121;38.932;-9.018;2023-03-26T02:56:53;111992.50;;;-145.11;97.32
63033;BME280;49121;38.932;-9.018;2023-03-26T02:59:16;111992.50;;;-145.11;97.60
63033;BME280;49121;38.932;-9.018;2023-03-26T03:01:19;111992.50;;;-145.11;97.26
63033;BME280;49121;38.932;-9.018;2023-03-26T03:03:26;111992.50;;;-145.11;97.26
63033;BME280;49121;38.932;-9.018;2023-03-26T03:05:32;111992.50;;;-145.11;97.39
63033;BME280;49121;38.932;-9.018;2023-03-26T03:07:59;111992.50;;;-145.11;97.24
63033;BME280;49121;38.932;-9.018;2023-03-26T03:10:01;111992.50;;;-145.11;96.52
63033;BME280;49121;38.932;-9.018;2023-03-26T03:14:39;111992.50;;;-145.11;96.40
63033;BME280;49121;38.932;-9.018;2023-03-26T03:16:58;111992.50;;;-145.11;96.98
63033;BME280;49121;38.932;-9.018;2023-03-26T03:18:59;111992.50;;;-145.11;97.16
63033;BME280;49121;38.932;-9.018;2023-03-26T03:21:09;111992.50;;;-145.11;96.84
63033;BME280;49121;38.932;-9.018;2023-03-26T03:23:09;111992.50;;;-145.11;97.11
63033;BME280;49121;38.932;-9.018;2023-03-26T03:25:10;111992.50;;;-145.11;96.85
63033;BME280;49121;38.932;-9.018;2023-03-26T03:27:18;111992.50;;;-145.11;97.14
63033;BME280;49121;38.932;-9.018;2023-03-26T03:29:27;111992.50;;;-145.11;97.38
63033;BME280;49121;38.932;-9.018;2023-03-26T03:31:29;111992.50;;;-145.11;97.38
63033;BME280;49121;38.932;-9.018;2023-03-26T03:33:37;111992.50;;;-145.11;97.58
63033;BME280;49121;38.932;-9.018;2023-03-26T03:35:37;111992.50;;;-145.11;98.51
63033;BME280;49121;38.932;-9.018;2023-03-26T03:37:39;111992.50;;;-145.11;98.65
63033;BME280;49121;38.932;-9.018;2023-03-26T03:39:41;111992.50;;;-145.11;98.89
63033;BME280;49121;38.932;-9.018;2023-03-26T03:41:43;111992.50;;;-145.11;98.81
63033;BME280;49121;38.932;-9.018;2023-03-26T03:43:50;111992.50;;;-145.11;98.91
63033;BME280;49121;38.932;-9.018;2023-03-26T03:45:58;111992.50;;;-145.11;99.23
63033;BME280;49121;38.932;-9.018;2023-03-26T03:48:07;111992.50;;;-145.11;99.56
63033;BME280;49121;38.932;-9.018;2023-03-26T03:50:14;111992.50;;;-145.11;100.00
63033;BME280;49121;38.932;-9.018;2023-03-26T03:52:27;111992.50;;;-145.11;100.00
63033;BME280;49121;38.932;-9.018;2023-03-26T03:54:28;111992.50;;;-145.11;100.00
63033;BME280;49121;38.932;-9.018;2023-03-26T03:56:54;111992.50;;;-145.11;100.00
63033;BME280;49121;38.932;-9.018;2023-03-26T03:58:58;111992.50;;;-145.11;100.00
63033;BME280;49121;38.932;-9.018;2023-03-26T04:01:05;111992.50;;;-145.11;100.00
63033;BME280;49121;38.932;-9.018;2023-03-26T04:03:26;111992.50;;;-145.11;100.00
63033;BME280;49121;38.932;-9.018;2023-03-26T04:05:32;111992.50;;;-145.11;100.00
63033;BME280;49121;38.932;-9.018;2023-03-26T04:07:33;111992.50;;;-145.11;100.00
63033;BME280;49121;38.932;-9.018;2023-03-26T04:09:39;111992.50;;;-145.11;100.00
63033;BME280;49121;38.932;-9.018;2023-03-26T04:11:47;111992.50;;;-145.11;100.00
63033;BME280;49121;38.932;-9.018;2023-03-26T04:14:06;111992.50;;;-145.11;100.00
63033;BME280;49121;38.932;-9.018;2023-03-26T04:16:27;111992.50;;;-145.11;100.00
63033;BME280;49121;38.932;-9.018;2023-03-26T04:18:28;111992.50;;;-145.11;100.00
63033;BME280;49121;38.932;-9.018;2023-03-26T04:20:36;111992.50;;;-145.11;100.00
63033;BME280;49121;38.932;-9.018;2023-03-26T04:22:38;111992.50;;;-145.11;100.00
63033;BME280;49121;38.932;-9.018;2023-03-26T04:24:41;111992.50;;;-145.11;100.00
63033;BME280;49121;38.932;-9.018;2023-03-26T04:26:47;111992.50;;;-145.11;100.00
63033;BME280;49121;38.932;-9.018;2023-03-26T04:28:54;111992.50;;;-145.11;100.00
63033;BME280;49121;38.932;-9.018;2023-03-26T04:31:00;111992.50;;;-145.11;100.00
63033;BME280;49121;38.932;-9.018;2023-03-26T04:33:10;111992.50;;;-145.11;100.00
63033;BME280;49121;38.932;-9.018;2023-03-26T04:35:15;111992.50;;;-145.11;100.00
63033;BME280;49121;38.932;-9.018;2023-03-26T04:37:26;111992.50;;;-145.11;100.00
63033;BME280;49121;38.932;-9.018;2023-03-26T04:39:39;111992.50;;;-145.11;100.00
63033;BME280;49121;38.932;-9.018;2023-03-26T04:41:57;111992.50;;;-145.11;100.00
63033;BME280;49121;38.932;-9.018;2023-03-26T04:44:03;111992.50;;;-145.11;100.00
63033;BME280;49121;38.932;-9.018;2023-03-26T04:49:00;111992.50;;;-145.11;100.00
63033;BME280;49121;38.932;-9.018;2023-03-26T04:51:01;111992.50;;;-145.11;100.00
63033;BME280;49121;38.932;-9.018;2023-03-26T04:53:02;111992.50;;;-145.11;100.00
63033;BME280;49121;38.932;-9.018;2023-03-26T04:55:38;111992.50;;;-145.11;100.00
63033;BME280;49121;38.932;-9.018;2023-03-26T04:57:54;111992.50;;;-145.11;100.00
63033;BME280;49121;38.932;-9.018;2023-03-26T05:00:15;111992.50;;;-145.11;99.88
63033;BME280;49121;38.932;-9.018;2023-03-26T05:02:21;111992.50;;;-145.11;99.94
63033;BME280;49121;38.932;-9.018;2023-03-26T05:04:27;111992.50;;;-145.11;99.94
63033;BME280;49121;38.932;-9.018;2023-03-26T05:06:31;111992.50;;;-145.11;99.99
63033;BME280;49121;38.932;-9.018;2023-03-26T05:08:39;111992.50;;;-145.11;99.94
63033;BME280;49121;38.932;-9.018;2023-03-26T05:10:41;111992.50;;;-145.11;100.00
63033;BME280;49121;38.932;-9.018;2023-03-26T05:13:02;111992.50;;;-145.11;100.00
63033;BME280;49121;38.932;-9.018;2023-03-26T05:15:08;111992.50;;;-145.11;100.00
63033;BME280;49121;38.932;-9.018;2023-03-26T05:17:28;111992.50;;;-145.11;100.00
63033;BME280;49121;38.932;-9.018;2023-03-26T05:19:31;111992.50;;;-145.11;100.00
63033;BME280;49121;38.932;-9.018;2023-03-26T05:21:32;111992.50;;;-145.11;100.00
63033;BME280;49121;38.932;-9.018;2023-03-26T05:23:33;111992.50;;;-145.11;100.00
63033;BME280;49121;38.932;-9.018;2023-03-26T05:25:43;111992.50;;;-145.11;100.00
63033;BME280;49121;38.932;-9.018;2023-03-26T05:27:49;111992.50;;;-145.11;100.00
63033;BME280;49121;38.932;-9.018;2023-03-26T05:29:52;111992.50;;;-145.11;100.00
63033;BME280;49121;38.932;-9.018;2023-03-26T05:32:17;111992.50;;;-145.11;100.00
63033;BME280;49121;38.932;-9.018;2023-03-26T05:34:19;111992.50;;;-145.11;100.00
63033;BME280;49121;38.932;-9.018;2023-03-26T05:36:23;111992.50;;;-145.11;100.00
63033;BME280;49121;38.932;-9.018;2023-03-26T05:38:36;111992.50;;;-145.11;100.00
63033;BME280;49121;38.932;-9.018;2023-03-26T05:40:39;111992.50;;;-145.11;100.00
63033;BME280;49121;38.932;-9.018;2023-03-26T05:42:41;111992.50;;;-145.11;100.00
63033;BME280;49121;38.932;-9.018;2023-03-26T05:45:00;111992.50;;;-145.11;100.00
63033;BME280;49121;38.932;-9.018;2023-03-26T05:47:03;111992.50;;;-145.11;100.00
63033;BME280;49121;38.932;-9.018;2023-03-26T05:49:03;111992.50;;;-145.11;100.00
63033;BME280;49121;38.932;-9.018;2023-03-26T05:51:07;111992.50;;;-145.11;100.00
63033;BME280;49121;38.932;-9.018;2023-03-26T05:53:09;111992.50;;;-145.11;100.00
63033;BME280;49121;38.932;-9.018;2023-03-26T05:58:15;111992.50;;;-145.11;100.00
63033;BME280;49121;38.932;-9.018;2023-03-26T06:00:45;111992.50;;;-145.11;100.00
63033;BME280;49121;38.932;-9.018;2023-03-26T06:02:50;111992.50;;;-145.11;100.00
63033;BME280;49121;38.932;-9.018;2023-03-26T06:05:06;111992.50;;;-145.11;100.00
63033;BME280;49121;38.932;-9.018;2023-03-26T06:07:27;111992.50;;;-145.11;100.00
63033;BME280;49121;38.932;-9.018;2023-03-26T06:09:43;111992.50;;;-145.11;100.00
63033;BME280;49121;38.932;-9.018;2023-03-26T06:11:44;111992.50;;;-145.11;100.00
63033;BME280;49121;38.932;-9.018;2023-03-26T06:13:46;111992.50;;;-145.11;100.00
63033;BME280;49121;38.932;-9.018;2023-03-26T06:15:47;111992.50;;;-145.11;100.00
63033;BME280;49121;38.932;-9.018;2023-03-26T06:17:56;111992.50;;;-145.11;100.00
63033;BME280;49121;38.932;-9.018;2023-03-26T06:20:15;111992.50;;;-145.11;100.00
63033;BME280;49121;38.932;-9.018;2023-03-26T06:22:19;111992.50;;;-145.11;99.60
63033;BME280;49121;38.932;-9.018;2023-03-26T06:24:38;111992.50;;;-145.11;99.40
63033;BME280;49121;38.932;-9.018;2023-03-26T06:26:56;111992.50;;;-145.11;99.66
63033;BME280;49121;38.932;-9.018;2023-03-26T06:29:27;111992.50;;;-145.11;99.37
63033;BME280;49121;38.932;-9.018;2023-03-26T06:31:56;111992.50;;;-145.11;98.55
63033;BME280;49121;38.932;-9.018;2023-03-26T06:34:07;111992.50;;;-145.11;97.83
63033;BME280;49121;38.932;-9.018;2023-03-26T06:36:08;111992.50;;;-145.11;98.14
63033;BME280;49121;38.932;-9.018;2023-03-26T06:38:10;111992.50;;;-145.11;98.74
63033;BME280;49121;38.932;-9.018;2023-03-26T06:40:10;111992.50;;;-145.11;99.18
63033;BME280;49121;38.932;-9.018;2023-03-26T06:42:38;111992.50;;;-145.11;99.21
63033;BME280;49121;38.932;-9.018;2023-03-26T06:45:14;111992.50;;;-145.11;99.59
63033;BME280;49121;38.932;-9.018;2023-03-26T06:47:49;111992.50;;;-145.11;99.45
63033;BME280;49121;38.932;-9.018;2023-03-26T06:50:12;111992.50;;;-145.11;99.37
63033;BME280;49121;38.932;-9.018;2023-03-26T06:52:45;111992.50;;;-145.11;99.52
63033;BME280;49121;38.932;-9.018;2023-03-26T06:55:13;111992.50;;;-145.11;99.67
63033;BME280;49121;38.932;-9.018;2023-03-26T06:57:30;111992.50;;;-145.11;99.62
63033;BME280;49121;38.932;-9.018;2023-03-26T06:59:57;111992.50;;;-145.11;99.28
63033;BME280;49121;38.932;-9.018;2023-03-26T07:02:16;111992.50;;;-145.11;99.00
63033;BME280;49121;38.932;-9.018;2023-03-26T07:04:35;111992.50;;;-145.11;98.65
63033;BME280;49121;38.932;-9.018;2023-03-26T07:06:54;111992.50;;;-145.11;98.62
63033;BME280;49121;38.932;-9.018;2023-03-26T07:09:13;111992.50;;;-145.11;98.67
63033;BME280;49121;38.932;-9.018;2023-03-26T07:11:34;111992.50;;;-145.11;98.73
63033;BME280;49121;38.932;-9.018;2023-03-26T07:13:53;111992.50;;;-145.11;98.46
63033;BME280;49121;38.932;-9.018;2023-03-26T07:16:15;111992.50;;;-145.11;98.39
63033;BME280;49121;38.932;-9.018;2023-03-26T07:18:34;111992.50;;;-145.11;98.27
63033;BME280;49121;38.932;-9.018;2023-03-26T07:20:36;111992.50;;;-145.11;98.03
63033;BME280;49121;38.932;-9.018;2023-03-26T07:22:37;111992.50;;;-145.11;97.95
63033;BME280;49121;38.932;-9.018;2023-03-26T07:24:38;111992.50;;;-145.11;97.98
63033;BME280;49121;38.932;-9.018;2023-03-26T07:32:02;111992.50;;;-145.11;99.61
63033;BME280;49121;38.932;-9.018;2023-03-26T07:46:36;111992.50;;;-145.11;69.97
63033;BME280;49121;38.932;-9.018;2023-03-26T07:48:55;111992.50;;;-145.11;67.40
63033;BME280;49121;38.932;-9.018;2023-03-26T07:51:16;111992.50;;;-145.11;69.39
63033;BME280;49121;38.932;-9.018;2023-03-26T07:53:47;111992.50;;;-145.11;70.91
63033;BME280;49121;38.932;-9.018;2023-03-26T07:56:15;111992.50;;;-145.11;70.77
63033;BME280;49121;38.932;-9.018;2023-03-26T08:01:45;111992.50;;;-145.11;70.94
63033;BME280;49121;38.932;-9.018;2023-03-26T08:14:26;111992.50;;;-145.11;73.44
63033;BME280;49121;38.932;-9.018;2023-03-26T08:18:54;111992.50;;;-145.11;75.39
63033;BME280;49121;38.932;-9.018;2023-03-26T08:21:03;111992.50;;;-145.11;78.12
63033;BME280;49121;38.932;-9.018;2023-03-26T08:23:10;111992.50;;;-145.11;78.37
63033;BME280;49121;38.932;-9.018;2023-03-26T08:27:20;111992.50;;;-145.11;77.37
63033;BME280;49121;38.932;-9.018;2023-03-26T08:31:33;111992.50;;;-145.11;70.27
63033;BME280;49121;38.932;-9.018;2023-03-26T08:33:35;111992.50;;;-145.11;69.46
63033;BME280;49121;38.932;-9.018;2023-03-26T08:35:36;111992.50;;;-145.11;69.67
63033;BME280;49121;38.932;-9.018;2023-03-26T08:37:41;111992.50;;;-145.11;67.27
63033;BME280;49121;38.932;-9.018;2023-03-26T08:39:44;111992.50;;;-145.11;68.85
63033;BME280;49121;38.932;-9.018;2023-03-26T08:51:00;111992.50;;;-145.11;60.68
63033;BME280;49121;38.932;-9.018;2023-03-26T09:01:58;111992.50;;;-145.11;54.21
63033;BME280;49121;38.932;-9.018;2023-03-26T09:08:55;111992.50;;;-145.11;49.69
63033;BME280;49121;38.932;-9.018;2023-03-26T09:37:22;111992.50;;;-145.11;49.32
63033;BME280;49121;38.932;-9.018;2023-03-26T09:39:34;111992.50;;;-145.11;48.18
63033;BME280;49121;38.932;-9.018;2023-03-26T09:43:54;111992.50;;;-145.11;44.98
63033;BME280;49121;38.932;-9.018;2023-03-26T10:05:46;111992.50;;;-145.11;50.43
63033;BME280;49121;38.932;-9.018;2023-03-26T10:16:04;111992.50;;;-145.11;48.47
63033;BME280;49121;38.932;-9.018;2023-03-26T10:29:33;111992.50;;;-145.11;47.33
63033;BME280;49121;38.932;-9.018;2023-03-26T10:33:29;111992.50;;;-145.11;46.61
63033;BME280;49121;38.932;-9.018;2023-03-26T10:35:46;111992.50;;;-145.11;45.47
63033;BME280;49121;38.932;-9.018;2023-03-26T10:48:24;111992.50;;;-145.11;42.81
63033;BME280;49121;38.932;-9.018;2023-03-26T10:52:37;111992.50;;;-145.11;42.65
63033;BME280;49121;38.932;-9.018;2023-03-26T10:56:46;111992.50;;;-145.11;42.56
63033;BME280;49121;38.932;-9.018;2023-03-26T10:58:48;111992.50;;;-145.11;42.45
63033;BME280;49121;38.932;-9.018;2023-03-26T11:00:56;111992.50;;;-145.11;43.20
63033;BME280;49121;38.932;-9.018;2023-03-26T11:07:38;111992.50;;;-145.11;43.67
63033;BME280;49121;38.932;-9.018;2023-03-26T11:10:04;111992.50;;;-145.11;42.88
63033;BME280;49121;38.932;-9.018;2023-03-26T11:12:18;111992.50;;;-145.11;43.16
63033;BME280;49121;38.932;-9.018;2023-03-26T11:16:51;111992.50;;;-145.11;43.63
63033;BME280;49121;38.932;-9.018;2023-03-26T11:19:08;111992.50;;;-145.11;42.13
63033;BME280;49121;38.932;-9.018;2023-03-26T11:32:39;111992.50;;;-145.11;42.56
63033;BME280;49121;38.932;-9.018;2023-03-26T11:34:42;111992.50;;;-145.11;42.08
63033;BME280;49121;38.932;-9.018;2023-03-26T11:37:05;111992.50;;;-145.11;41.58
63033;BME280;49121;38.932;-9.018;2023-03-26T11:39:11;111992.50;;;-145.11;41.89
63033;BME280;49121;38.932;-9.018;2023-03-26T11:41:22;111992.50;;;-145.11;41.89
63033;BME280;49121;38.932;-9.018;2023-03-26T11:43:35;111992.50;;;-145.11;42.50
63033;BME280;49121;38.932;-9.018;2023-03-26T11:45:40;111992.50;;;-145.11;41.52
63033;BME280;49121;38.932;-9.018;2023-03-26T11:49:44;111992.50;;;-145.11;42.24
63033;BME280;49121;38.932;-9.018;2023-03-26T11:51:47;111992.50;;;-145.11;41.22
63033;BME280;49121;38.932;-9.018;2023-03-26T11:53:47;111992.50;;;-145.11;41.62
63033;BME280;49121;38.932;-9.018;2023-03-26T11:56:08;111992.50;;;-145.11;42.80
63033;BME280;49121;38.932;-9.018;2023-03-26T11:58:21;111992.50;;;-145.11;41.73
63033;BME280;49121;38.932;-9.018;2023-03-26T12:00:24;111992.50;;;-145.11;41.87
63033;BME280;49121;38.932;-9.018;2023-03-26T12:02:30;111992.50;;;-145.11;41.87
63033;BME280;49121;38.932;-9.018;2023-03-26T12:05:10;111992.50;;;-145.11;40.30
63033;BME280;49121;38.932;-9.018;2023-03-26T12:07:30;111992.50;;;-145.11;40.46
63033;BME280;49121;38.932;-9.018;2023-03-26T12:09:31;111992.50;;;-145.11;40.38
63033;BME280;49121;38.932;-9.018;2023-03-26T12:11:32;111992.50;;;-145.11;40.34
63033;BME280;49121;38.932;-9.018;2023-03-26T12:13:40;111992.50;;;-145.11;40.01
63033;BME280;49121;38.932;-9.018;2023-03-26T12:15:42;111992.50;;;-145.11;40.76
63033;BME280;49121;38.932;-9.018;2023-03-26T12:17:43;111992.50;;;-145.11;40.44
63033;BME280;49121;38.932;-9.018;2023-03-26T12:19:45;111992.50;;;-145.11;40.33
63033;BME280;49121;38.932;-9.018;2023-03-26T12:21:50;111992.50;;;-145.11;40.79
63033;BME280;49121;38.932;-9.018;2023-03-26T12:28:35;111992.50;;;-145.11;41.82
63033;BME280;49121;38.932;-9.018;2023-03-26T12:30:36;111992.50;;;-145.11;41.15
63033;BME280;49121;38.932;-9.018;2023-03-26T12:32:41;111992.50;;;-145.11;41.61
63033;BME280;49121;38.932;-9.018;2023-03-26T12:34:44;111992.50;;;-145.11;39.74
63033;BME280;49121;38.932;-9.018;2023-03-26T12:37:04;111992.50;;;-145.11;39.71
63033;BME280;49121;38.932;-9.018;2023-03-26T12:41:33;111992.50;;;-145.11;40.58
63033;BME280;49121;38.932;-9.018;2023-03-26T12:43:50;111992.50;;;-145.11;40.56
63033;BME280;49121;38.932;-9.018;2023-03-26T12:45:55;111992.50;;;-145.11;40.01
63033;BME280;49121;38.932;-9.018;2023-03-26T12:47:57;111992.50;;;-145.11;39.06
63033;BME280;49121;38.932;-9.018;2023-03-26T12:50:01;111992.50;;;-145.11;39.55
63033;BME280;49121;38.932;-9.018;2023-03-26T13:01:13;111992.50;;;-145.11;35.44
63033;BME280;49121;38.932;-9.018;2023-03-26T13:18:57;111992.50;;;-145.11;38.98
63033;BME280;49121;38.932;-9.018;2023-03-26T13:25:24;111992.50;;;-145.11;38.88
63033;BME280;49121;38.932;-9.018;2023-03-26T13:27:40;111992.50;;;-145.11;37.82
63033;BME280;49121;38.932;-9.018;2023-03-26T13:30:06;111992.50;;;-145.11;37.56
63033;BME280;49121;38.932;-9.018;2023-03-26T13:36:13;111992.50;;;-145.11;36.80
63033;BME280;49121;38.932;-9.018;2023-03-26T13:40:35;111992.50;;;-145.11;39.13
63033;BME280;49121;38.932;-9.018;2023-03-26T13:46:51;111992.50;;;-145.11;37.54
63033;BME280;49121;38.932;-9.018;2023-03-26T13:51:09;111992.50;;;-145.11;36.18
63033;BME280;49121;38.932;-9.018;2023-03-26T13:53:16;111992.50;;;-145.11;37.00
63033;BME280;49121;38.932;-9.018;2023-03-26T13:57:27;111992.50;;;-145.11;38.17
63033;BME280;49121;38.932;-9.018;2023-03-26T13:59:34;111992.50;;;-145.11;38.11
63033;BME280;49121;38.932;-9.018;2023-03-26T14:01:45;111992.50;;;-145.11;36.72
63033;BME280;49121;38.932;-9.018;2023-03-26T14:05:49;111992.50;;;-145.11;37.66
63033;BME280;49121;38.932;-9.018;2023-03-26T14:07:55;111992.50;;;-145.11;37.22
63033;BME280;49121;38.932;-9.018;2023-03-26T14:14:05;111992.50;;;-145.11;37.53
63033;BME280;49121;38.932;-9.018;2023-03-26T14:16:13;111992.50;;;-145.11;37.86
63033;BME280;49121;38.932;-9.018;2023-03-26T14:20:41;111992.50;;;-145.11;37.62
63033;BME280;49121;38.932;-9.018;2023-03-26T14:22:54;111992.50;;;-145.11;37.53
63033;BME280;49121;38.932;-9.018;2023-03-26T14:25:23;111992.50;;;-145.11;37.31
63033;BME280;49121;38.932;-9.018;2023-03-26T14:32:28;111992.50;;;-145.11;38.00
63033;BME280;49121;38.932;-9.018;2023-03-26T14:34:34;111992.50;;;-145.11;36.85
63033;BME280;49121;38.932;-9.018;2023-03-26T14:36:46;111992.50;;;-145.11;37.43
63033;BME280;49121;38.932;-9.018;2023-03-26T14:41:39;111992.50;;;-145.11;36.64
63033;BME280;49121;38.932;-9.018;2023-03-26T14:46:06;111992.50;;;-145.11;37.44
63033;BME280;49121;38.932;-9.018;2023-03-26T14:54:30;111992.50;;;-145.11;35.04
63033;BME280;49121;38.932;-9.018;2023-03-26T15:16:59;111992.50;;;-145.11;37.91
63033;BME280;49121;38.932;-9.018;2023-03-26T15:23:56;111992.50;;;-145.11;37.86
63033;BME280;49121;38.932;-9.018;2023-03-26T15:39:39;111992.50;;;-145.11;37.40
63033;BME280;49121;38.932;-9.018;2023-03-26T15:41:54;111992.50;;;-145.11;37.95
63033;BME280;49121;38.932;-9.018;2023-03-26T15:50:18;111992.50;;;-145.11;37.18